Time;durP1;ratioP1;P1;durP2;ratioP2;P2;SDS_P1;SDS_P2;PMS_P1;PMS_P2;Temp;Humidity;BMP_temperature;BMP_pressure;BME280_temperature;BME280_humidity;BME280_pressure;Samples;Min_cycle;Max_cycle;Signal;HPM_P1;HPM_P2
2024/01/22 00:00:03;;;;;;;12.10;6.38;;;;;;;1.16;90.81;101299.97;7395788;19;20154;-69
2024/01/22 00:02:31;;;;;;;11.07;6.35;;;;;;;1.17;91.84;101287.94;7396598;19;20015;-70
2024/01/22 00:05:00;;;;;;;12.05;6.25;;;;;;;1.18;92.32;101282.78;7396699;19;20486;-68
2024/01/22 00:07:28;;;;;;;10.10;6.00;;;;;;;1.18;92.27;101272.47;7395280;19;20082;-68
2024/01/22 00:09:57;;;;;;;8.80;5.70;;;;;;;1.20;91.50;101270.81;7396601;19;20383;-68
2024/01/22 00:12:28;;;;;;;9.43;6.60;;;;;;;1.21;91.84;101269.06;7396749;19;20082;-68
2024/01/22 00:14:56;;;;;;;9.50;5.90;;;;;;;1.23;92.79;101270.00;7394543;19;20553;-68
2024/01/22 00:17:25;;;;;;;9.02;5.90;;;;;;;1.22;92.15;101258.75;7396679;19;20440;-68
2024/01/22 00:19:53;;;;;;;12.43;6.10;;;;;;;1.24;92.88;101259.69;7396291;19;20494;-69
2024/01/22 00:22:21;;;;;;;8.40;6.18;;;;;;;1.25;91.43;101257.97;7396521;19;20078;-72
2024/01/22 00:24:50;;;;;;;7.20;5.28;;;;;;;1.24;92.71;101239.00;7394613;19;20465;-68
2024/01/22 00:27:18;;;;;;;9.82;5.72;;;;;;;1.29;93.46;101236.53;7396519;19;20019;-68
2024/01/22 00:29:49;;;;;;;8.38;5.80;;;;;;;1.33;92.94;101237.47;7396330;19;20077;-68
2024/01/22 00:32:18;;;;;;;15.23;7.10;;;;;;;1.38;93.51;101222.94;7396366;19;20423;-68
2024/01/22 00:34:46;;;;;;;9.70;5.57;;;;;;;1.41;92.72;101212.69;7395325;19;20152;-68
2024/01/22 00:37:15;;;;;;;8.75;5.60;;;;;;;1.44;92.85;101200.69;7395985;19;20086;-68
2024/01/22 00:39:43;;;;;;;12.60;5.90;;;;;;;1.49;92.94;101197.34;7395350;19;20427;-68
2024/01/22 00:42:12;;;;;;;10.57;5.53;;;;;;;1.50;91.22;101199.09;7395993;19;20090;-67
2024/01/22 00:44:41;;;;;;;8.43;5.20;;;;;;;1.50;92.22;101199.97;7394192;19;20034;-67
2024/01/22 00:47:12;;;;;;;9.85;5.60;;;;;;;1.50;91.44;101193.91;7395895;19;20073;-67
2024/01/22 00:49:40;;;;;;;8.45;5.18;;;;;;;1.50;92.12;101188.75;7394586;19;20070;-67
2024/01/22 00:52:09;;;;;;;6.20;5.07;;;;;;;1.51;92.16;101187.91;7396181;19;20014;-67
2024/01/22 00:54:37;;;;;;;8.48;6.18;;;;;;;1.51;92.46;101186.19;7394061;19;20108;-67
2024/01/22 00:57:06;;;;;;;7.45;5.40;;;;;;;1.53;92.84;101183.63;7394681;19;20082;-67
2024/01/22 00:59:35;;;;;;;10.30;5.70;;;;;;;1.53;91.01;101171.59;7395563;19;20027;-67
2024/01/22 01:02:03;;;;;;;7.88;5.38;;;;;;;1.53;91.50;101166.41;7395107;19;20525;-67
2024/01/22 01:04:34;;;;;;;9.50;4.80;;;;;;;1.54;92.68;101156.94;7393644;19;20031;-68
2024/01/22 01:07:03;;;;;;;8.55;5.85;;;;;;;1.54;93.18;101138.84;7395789;19;20078;-67
2024/01/22 01:09:32;;;;;;;8.63;5.85;;;;;;;1.55;92.06;101127.66;7394956;19;20082;-67
2024/01/22 01:12:00;;;;;;;7.53;4.85;;;;;;;1.52;92.02;101112.94;7395223;19;20090;-67
2024/01/22 01:14:28;;;;;;;8.18;5.22;;;;;;;1.56;93.05;101125.09;7393224;19;20074;-67
2024/01/22 01:16:58;;;;;;;5.90;4.70;;;;;;;1.57;92.18;101123.41;7394720;19;20545;-67
2024/01/22 01:19:27;;;;;;;7.50;5.05;;;;;;;1.60;92.31;101131.22;7395816;19;20011;-67
2024/01/22 01:21:58;;;;;;;8.05;5.85;;;;;;;1.62;93.06;101126.94;7394528;19;20070;-67
2024/01/22 01:24:26;;;;;;;8.45;5.45;;;;;;;1.67;91.71;101125.34;7393202;19;20014;-67
2024/01/22 01:26:55;;;;;;;5.50;4.63;;;;;;;1.72;93.18;101121.13;7394443;19;20540;-67
2024/01/22 01:29:23;;;;;;;10.98;5.72;;;;;;;1.76;93.35;101119.47;7394638;19;20086;-67
2024/01/22 01:31:52;;;;;;;9.40;5.15;;;;;;;1.77;93.24;101111.75;7394644;19;20074;-67
2024/01/22 01:34:20;;;;;;;7.55;5.32;;;;;;;1.81;93.48;101107.50;7392304;19;20478;-68
2024/01/22 01:36:48;;;;;;;8.88;5.45;;;;;;;1.84;91.92;101107.56;7394582;19;20419;-67
2024/01/22 01:39:19;;;;;;;10.40;5.60;;;;;;;1.88;92.24;101111.09;7392608;19;20022;-67
2024/01/22 01:41:51;;;;;;;7.00;4.55;;;;;;;1.92;92.86;101113.78;7394049;19;20485;-67
2024/01/22 01:44:19;;;;;;;5.93;4.60;;;;;;;1.95;94.15;101106.06;7392750;19;20082;-67
2024/01/22 01:46:48;;;;;;;8.18;4.82;;;;;;;2.00;94.04;101100.09;7394292;19;20014;-67
2024/01/22 01:49:23;;;;;;;10.13;4.97;;;;;;;2.02;94.72;101091.53;7393858;19;20010;-67
2024/01/22 01:51:51;;;;;;;6.93;4.53;;;;;;;2.04;94.14;101089.81;7397015;19;20511;-67
2024/01/22 01:54:22;;;;;;;6.72;5.15;;;;;;;2.07;93.66;101084.72;7399037;19;20094;-67
2024/01/22 01:56:51;;;;;;;8.43;5.30;;;;;;;2.10;94.00;101069.25;7401175;19;20078;-67
2024/01/22 01:59:22;;;;;;;6.45;4.95;;;;;;;2.13;95.54;101063.25;7401762;19;20078;-66
2024/01/22 02:01:50;;;;;;;8.98;4.60;;;;;;;2.16;95.47;101055.56;7401008;19;20007;-66
2024/01/22 02:04:18;;;;;;;8.90;5.28;;;;;;;2.19;94.45;101052.16;7398440;19;20010;-67
2024/01/22 02:06:47;;;;;;;6.57;4.65;;;;;;;2.22;95.22;101047.88;7401106;19;20410;-66
2024/01/22 02:09:15;;;;;;;9.15;5.13;;;;;;;2.24;95.28;101019.44;7400650;19;20427;-67
2024/01/22 02:11:46;;;;;;;6.30;4.93;;;;;;;2.27;94.61;101009.13;7400962;19;20070;-66
2024/01/22 02:14:15;;;;;;;8.35;4.90;;;;;;;2.32;95.70;101016.97;7399481;19;20078;-67
2024/01/22 02:16:45;;;;;;;8.23;5.03;;;;;;;2.36;94.87;101018.75;7398128;19;20031;-67
2024/01/22 02:19:13;;;;;;;7.85;4.60;;;;;;;2.40;96.50;101008.47;7400693;19;20074;-67
2024/01/22 02:21:41;;;;;;;7.35;4.80;;;;;;;2.44;94.68;100997.31;7400498;19;20096;-67
2024/01/22 02:24:12;;;;;;;6.28;4.68;;;;;;;2.49;95.79;100991.34;7398075;19;20549;-66
2024/01/22 02:26:41;;;;;;;7.88;4.97;;;;;;;2.54;97.14;100981.91;7401016;19;20079;-68
2024/01/22 02:29:09;;;;;;;10.93;5.22;;;;;;;2.58;97.65;100989.75;7400452;19;20082;-67
2024/01/22 02:31:38;;;;;;;8.60;4.93;;;;;;;2.63;97.00;100963.94;7397533;19;20414;-68
2024/01/22 02:34:06;;;;;;;10.93;5.03;;;;;;;2.71;96.48;100958.84;7398289;19;20035;-68
2024/01/22 02:36:34;;;;;;;11.35;5.18;;;;;;;2.76;96.18;100959.78;7397929;19;20082;-67
2024/01/22 02:39:03;;;;;;;6.88;4.53;;;;;;;2.82;97.32;100959.88;7399759;19;20414;-67
2024/01/22 02:41:41;;;;;;;7.97;4.85;;;;;;;2.87;95.91;100965.09;7400025;19;20014;-68
2024/01/22 02:44:09;;;;;;;6.70;4.28;;;;;;;2.94;98.01;100966.94;7398137;19;20070;-68
2024/01/22 02:46:38;;;;;;;8.70;5.03;;;;;;;2.96;94.41;100964.34;7399459;19;20497;-68
2024/01/22 02:49:06;;;;;;;5.13;4.40;;;;;;;2.97;97.67;100937.59;7399772;19;20055;-68
2024/01/22 02:51:34;;;;;;;6.30;3.83;;;;;;;2.99;97.68;100931.56;7399577;19;20091;-68
2024/01/22 02:54:03;;;;;;;5.93;4.15;;;;;;;3.00;95.85;100924.69;7397414;19;20540;-68
2024/01/22 02:56:31;;;;;;;9.95;4.43;;;;;;;3.02;97.56;100918.66;7397602;19;20022;-68
2024/01/22 02:59:03;;;;;;;7.55;4.78;;;;;;;3.05;95.38;100913.50;7396797;19;20074;-68
2024/01/22 03:01:31;;;;;;;5.70;4.07;;;;;;;3.09;95.29;100904.03;7399014;19;20014;-68
2024/01/22 03:04:00;;;;;;;6.97;4.13;;;;;;;3.14;95.85;100880.78;7393824;19;20078;-69
2024/01/22 03:06:28;;;;;;;6.47;4.15;;;;;;;3.18;94.63;100875.63;7399134;19;20082;-68
2024/01/22 03:08:57;;;;;;;5.00;4.00;;;;;;;3.24;96.00;100864.47;7397930;19;20083;-68
2024/01/22 03:11:25;;;;;;;7.50;4.15;;;;;;;3.29;96.33;100882.66;7398885;19;20018;-68
2024/01/22 03:13:54;;;;;;;6.63;4.05;;;;;;;3.31;96.95;100879.22;7399563;19;20492;-69
2024/01/22 03:16:25;;;;;;;8.80;4.45;;;;;;;3.35;97.04;100895.66;7399078;19;20014;-69
2024/01/22 03:18:53;;;;;;;8.48;4.57;;;;;;;3.35;95.04;100881.00;7399054;19;20019;-68
2024/01/22 03:21:21;;;;;;;6.32;4.10;;;;;;;3.38;92.33;100903.50;7398591;19;20070;-69
2024/01/22 03:23:50;;;;;;;4.68;3.88;;;;;;;3.42;96.19;100889.69;7397006;19;20082;-68
2024/01/22 03:26:22;;;;;;;6.00;4.25;;;;;;;3.41;93.30;100907.00;7398158;19;20019;-68
2024/01/22 03:28:51;;;;;;;6.60;4.38;;;;;;;3.43;96.01;100900.09;7398023;19;20339;-68
2024/01/22 03:31:27;;;;;;;6.78;4.70;;;;;;;3.43;93.13;100907.88;7396154;19;20006;-69
2024/01/22 03:33:56;;;;;;;7.18;4.45;;;;;;;3.45;95.03;100878.47;7396717;19;20077;-68
2024/01/22 03:36:26;;;;;;;8.60;4.13;;;;;;;3.46;95.82;100888.00;7396274;19;20087;-68
2024/01/22 03:38:55;;;;;;;6.10;3.67;;;;;;;3.46;96.53;100878.50;7398016;19;20019;-68
2024/01/22 03:41:23;;;;;;;6.05;4.25;;;;;;;3.48;96.25;100883.72;7397765;19;20035;-68
2024/01/22 03:43:51;;;;;;;6.45;3.72;;;;;;;3.48;95.26;100870.75;7396134;19;20078;-68
2024/01/22 03:46:20;;;;;;;5.35;3.80;;;;;;;3.50;97.07;100869.03;7397466;19;20477;-68
2024/01/22 03:48:51;;;;;;;5.55;3.65;;;;;;;3.50;96.27;100850.84;7397754;19;20031;-68
2024/01/22 03:51:19;;;;;;;8.45;4.25;;;;;;;3.50;94.68;100832.69;7397979;19;20086;-68
2024/01/22 03:53:48;;;;;;;6.07;3.90;;;;;;;3.53;94.34;100838.78;7396630;19;20078;-68
2024/01/22 03:56:16;;;;;;;5.40;3.78;;;;;;;3.55;96.45;100836.19;7396342;19;20036;-68
2024/01/22 03:58:45;;;;;;;6.78;4.15;;;;;;;3.55;97.79;100836.19;7395579;19;20090;-68
2024/01/22 04:01:21;;;;;;;5.60;4.20;;;;;;;3.55;97.28;100818.94;7397369;19;20024;-68
2024/01/22 04:03:53;;;;;;;7.13;3.97;;;;;;;3.53;97.07;100833.59;7395996;19;20015;-68
2024/01/22 04:06:21;;;;;;;6.90;3.63;;;;;;;3.58;96.54;100828.47;7395791;19;20066;-69
2024/01/22 04:08:50;;;;;;;5.10;3.83;;;;;;;3.61;96.42;100820.69;7396772;19;20027;-68
2024/01/22 04:11:15;;;;;;;5.75;3.63;;;;;;;3.63;96.88;100825.88;7396486;19;20073;-68
2024/01/22 04:13:44;;;;;;;4.88;3.13;;;;;;;3.65;94.06;100806.00;7394778;19;20018;-67
2024/01/22 04:16:15;;;;;;;8.55;3.50;;;;;;;3.67;96.59;100792.19;7395646;19;20007;-68
2024/01/22 04:18:43;;;;;;;5.55;3.88;;;;;;;3.69;95.76;100764.53;7397227;19;20007;-68
2024/01/22 04:21:14;;;;;;;6.18;3.22;;;;;;;3.71;94.99;100751.56;7396664;19;20014;-68
2024/01/22 04:23:43;;;;;;;7.50;4.00;;;;;;;3.74;92.71;100736.00;7395664;19;20094;-67
2024/01/22 04:26:11;;;;;;;5.10;3.00;;;;;;;3.75;92.64;100742.94;7394903;19;20010;-67
2024/01/22 04:28:40;;;;;;;4.20;3.35;;;;;;;3.77;95.32;100772.38;7396452;19;20037;-67
2024/01/22 04:31:09;;;;;;;4.85;3.03;;;;;;;3.75;93.41;100743.84;7395957;19;20376;-66
2024/01/22 04:33:37;;;;;;;6.50;3.08;;;;;;;3.76;94.38;100731.72;7394750;19;20086;-67
2024/01/22 04:36:06;;;;;;;5.47;3.35;;;;;;;3.76;96.72;100739.50;7394381;19;20088;-67
2024/01/22 04:38:37;;;;;;;6.57;3.20;;;;;;;3.77;92.77;100748.13;7396177;19;20024;-67
2024/01/22 04:41:06;;;;;;;4.95;3.00;;;;;;;3.81;97.66;100750.78;7396438;19;20007;-67
2024/01/22 04:43:35;;;;;;;3.72;3.10;;;;;;;3.81;97.44;100734.34;7394403;19;20015;-67
2024/01/22 04:46:03;;;;;;;3.92;2.58;;;;;;;3.83;96.32;100712.72;7395648;19;20014;-67
2024/01/22 04:48:32;;;;;;;5.75;2.70;;;;;;;3.84;93.39;100717.06;7395828;19;20007;-67
2024/01/22 04:51:07;;;;;;;6.43;3.20;;;;;;;3.86;94.43;100717.91;7395853;19;20015;-67
2024/01/22 04:53:38;;;;;;;3.90;2.80;;;;;;;3.91;94.82;100705.84;7394079;19;20482;-67
2024/01/22 04:56:07;;;;;;;3.90;2.58;;;;;;;3.91;95.08;100704.97;7395512;19;20017;-67
2024/01/22 04:58:36;;;;;;;7.35;2.65;;;;;;;3.96;96.35;100695.47;7393951;19;20035;-67
2024/01/22 05:01:04;;;;;;;9.52;4.78;;;;;;;3.99;96.59;100677.31;7395608;19;20019;-67
2024/01/22 05:03:33;;;;;;;7.68;3.83;;;;;;;4.00;94.84;100668.66;7393196;19;20098;-67
2024/01/22 05:06:02;;;;;;;6.60;2.80;;;;;;;4.02;94.57;100659.16;7395243;19;20069;-67
2024/01/22 05:08:31;;;;;;;6.15;2.30;;;;;;;4.05;94.17;100655.72;7394706;19;20078;-67
2024/01/22 05:11:02;;;;;;;5.25;2.40;;;;;;;4.10;94.70;100642.75;7395899;19;20018;-67
2024/01/22 05:13:30;;;;;;;5.35;2.88;;;;;;;4.12;93.11;100638.41;7393465;19;20015;-67
2024/01/22 05:16:00;;;;;;;5.82;3.65;;;;;;;4.17;95.09;100621.13;7394387;19;20014;-67
2024/01/22 05:18:28;;;;;;;6.15;2.67;;;;;;;4.22;93.42;100596.91;7395218;19;20038;-68
2024/01/22 05:20:57;;;;;;;3.72;2.22;;;;;;;4.29;93.72;100574.41;7394661;19;20010;-67
2024/01/22 05:23:25;;;;;;;4.40;2.35;;;;;;;4.36;93.34;100573.56;7392875;19;20542;-68
2024/01/22 05:25:54;;;;;;;3.45;2.65;;;;;;;4.42;94.06;100596.06;7396197;19;20055;-68
2024/01/22 05:28:26;;;;;;;6.57;3.38;;;;;;;4.49;94.88;100581.38;7401483;19;20082;-68
2024/01/22 05:30:54;;;;;;;7.63;3.85;;;;;;;4.56;93.58;100578.78;7402219;19;20021;-69
2024/01/22 05:33:23;;;;;;;6.68;3.28;;;;;;;4.66;93.89;100609.94;7400469;19;20027;-69
2024/01/22 05:35:51;;;;;;;4.68;2.40;;;;;;;4.77;95.50;100603.00;7400894;19;20070;-69
2024/01/22 05:38:20;;;;;;;3.95;2.20;;;;;;;4.83;94.37;100626.41;7401746;19;20032;-69
2024/01/22 05:40:48;;;;;;;3.08;2.30;;;;;;;4.90;93.14;100598.66;7401435;19;20018;-69
2024/01/22 05:43:17;;;;;;;6.20;3.22;;;;;;;4.96;95.12;100605.63;7400034;19;20011;-69
2024/01/22 05:45:48;;;;;;;5.65;2.35;;;;;;;4.96;93.12;100606.47;7401450;19;20082;-68
2024/01/22 05:48:17;;;;;;;2.92;2.22;;;;;;;4.98;94.89;100599.53;7400854;19;20011;-68
2024/01/22 05:50:45;;;;;;;3.60;1.77;;;;;;;4.96;92.09;100577.88;7400926;19;20533;-69
2024/01/22 05:53:14;;;;;;;3.05;1.83;;;;;;;4.97;94.35;100556.22;7399882;19;20018;-69
2024/01/22 05:55:44;;;;;;;4.50;2.20;;;;;;;4.98;92.91;100564.84;7397933;19;20503;-69
2024/01/22 05:58:13;;;;;;;2.92;1.98;;;;;;;4.97;93.84;100553.59;7397923;19;20086;-68
2024/01/22 06:00:41;;;;;;;6.05;2.17;;;;;;;4.97;92.64;100548.41;7399586;19;20098;-69
2024/01/22 06:03:12;;;;;;;4.38;2.30;;;;;;;4.99;92.44;100527.59;7399373;19;20415;-69
2024/01/22 06:05:41;;;;;;;4.80;1.70;;;;;;;5.00;92.46;100566.59;7400613;19;20010;-69
2024/01/22 06:08:09;;;;;;;3.15;2.03;;;;;;;5.00;90.83;100545.78;7399826;19;20431;-69
2024/01/22 06:10:38;;;;;;;4.75;2.10;;;;;;;5.03;92.93;100518.91;7400027;19;20011;-68
2024/01/22 06:13:07;;;;;;;5.97;2.28;;;;;;;5.04;93.33;100499.84;7399005;19;20485;-68
2024/01/22 06:15:35;;;;;;;5.05;2.03;;;;;;;5.00;90.93;100491.19;7399800;19;20122;-69
2024/01/22 06:18:04;;;;;;;4.18;2.42;;;;;;;5.08;93.94;100508.50;7397606;19;20014;-69
2024/01/22 06:20:35;;;;;;;3.80;1.83;;;;;;;5.06;89.02;100519.78;7400182;19;20015;-69
2024/01/22 06:23:03;;;;;;;3.95;2.03;;;;;;;5.09;93.04;100520.66;7398755;19;20031;-68
2024/01/22 06:25:32;;;;;;;2.90;1.80;;;;;;;5.08;92.52;100537.09;7399756;19;20074;-69
2024/01/22 06:28:00;;;;;;;3.97;1.65;;;;;;;5.05;91.31;100538.88;7399293;19;20011;-67
2024/01/22 06:30:28;;;;;;;3.17;1.80;;;;;;;5.06;91.61;100550.97;7399293;19;20021;-68
2024/01/22 06:32:57;;;;;;;3.42;2.00;;;;;;;5.06;89.81;100556.19;7398539;19;20018;-67
2024/01/22 06:35:25;;;;;;;3.03;1.65;;;;;;;5.03;90.31;100500.72;7399634;19;20344;-68
2024/01/22 06:37:56;;;;;;;4.60;2.00;;;;;;;5.04;90.65;100521.53;7396804;19;20027;-68
2024/01/22 06:40:25;;;;;;;3.50;2.17;;;;;;;5.03;93.26;100525.00;7399590;19;20007;-67
2024/01/22 06:42:53;;;;;;;3.63;1.77;;;;;;;5.04;90.37;100526.72;7396746;19;20031;-68
2024/01/22 06:45:22;;;;;;;3.55;2.10;;;;;;;5.05;93.45;100523.28;7399297;19;20037;-68
2024/01/22 06:47:52;;;;;;;7.68;1.92;;;;;;;5.05;92.87;100520.66;7399007;19;20494;-67
2024/01/22 06:50:20;;;;;;;2.60;1.88;;;;;;;5.04;89.23;100529.34;7398779;19;20028;-68
2024/01/22 06:52:49;;;;;;;2.90;2.10;;;;;;;5.08;94.94;100531.91;7398592;19;20082;-68
2024/01/22 06:55:20;;;;;;;3.78;1.73;;;;;;;5.07;90.88;100520.66;7399471;19;20014;-67
2024/01/22 06:57:48;;;;;;;3.35;1.70;;;;;;;5.09;93.49;100516.28;7396416;19;20363;-68
2024/01/22 07:00:19;;;;;;;3.05;1.75;;;;;;;5.11;88.95;100513.72;7398458;19;20532;-67
2024/01/22 07:02:49;;;;;;;3.17;2.33;;;;;;;5.13;90.83;100523.25;7396159;19;20018;-67
2024/01/22 07:05:18;;;;;;;2.67;1.63;;;;;;;5.16;92.56;100537.97;7398570;19;20006;-67
2024/01/22 07:07:46;;;;;;;3.20;2.08;;;;;;;5.17;93.42;100544.91;7396916;19;20011;-67
2024/01/22 07:10:15;;;;;;;3.10;1.73;;;;;;;5.16;90.03;100532.78;7396710;19;20028;-67
2024/01/22 07:12:46;;;;;;;1.80;1.52;;;;;;;5.17;89.54;100539.72;7398041;19;20081;-67
2024/01/22 07:15:15;;;;;;;3.17;1.88;;;;;;;5.19;89.73;100531.03;7396354;19;20015;-67
2024/01/22 07:17:44;;;;;;;1.70;1.30;;;;;;;5.21;92.19;100542.28;7397060;19;20074;-67
2024/01/22 07:20:14;;;;;;;3.28;1.63;;;;;;;5.23;91.42;100542.25;7395626;19;20485;-67
2024/01/22 07:22:44;;;;;;;2.75;1.88;;;;;;;5.22;89.55;100532.75;7397548;19;20379;-67
2024/01/22 07:25:13;;;;;;;5.15;2.20;;;;;;;5.21;89.72;100539.69;7398447;19;20011;-67
2024/01/22 07:27:42;;;;;;;2.67;1.48;;;;;;;5.21;90.88;100534.47;7398198;19;20010;-67
2024/01/22 07:30:15;;;;;;;2.45;1.85;;;;;;;5.22;92.97;100520.59;7397531;19;20006;-66
2024/01/22 07:32:45;;;;;;;2.17;1.38;;;;;;;5.23;93.36;100526.66;7395220;19;20011;-66
2024/01/22 07:35:15;;;;;;;2.28;1.42;;;;;;;5.24;92.26;100512.78;7397772;19;20011;-66
2024/01/22 07:37:45;;;;;;;2.60;1.45;;;;;;;5.25;91.71;100517.13;7394492;19;20086;-66
2024/01/22 07:40:14;;;;;;;4.25;1.45;;;;;;;5.25;90.36;100517.13;7397420;19;20011;-66
2024/01/22 07:42:43;;;;;;;2.72;1.58;;;;;;;5.29;91.50;100534.44;7394564;19;20390;-67
2024/01/22 07:45:15;;;;;;;2.35;1.70;;;;;;;5.25;90.96;100503.25;7396862;19;20021;-66
2024/01/22 07:47:44;;;;;;;3.05;1.50;;;;;;;5.32;91.81;100511.03;7397270;19;20014;-66
2024/01/22 07:50:20;;;;;;;2.88;1.60;;;;;;;5.32;92.50;100500.63;7395667;19;20078;-69
2024/01/22 07:52:48;;;;;;;2.75;1.52;;;;;;;5.35;90.04;100500.59;7397492;19;20042;-67
2024/01/22 07:55:18;;;;;;;1.98;1.42;;;;;;;5.39;92.37;100488.44;7395411;19;20427;-67
2024/01/22 07:57:47;;;;;;;3.15;1.70;;;;;;;5.42;92.10;100490.19;7395732;19;20021;-68
2024/01/22 08:00:19;;;;;;;4.65;1.50;;;;;;;5.49;91.49;100494.50;7396755;19;20077;-68
2024/01/22 08:02:47;;;;;;;1.67;1.30;;;;;;;5.56;89.84;100477.97;7396586;19;20086;-66
2024/01/22 08:05:16;;;;;;;3.28;1.77;;;;;;;5.59;90.81;100477.94;7397023;19;20062;-66
2024/01/22 08:07:44;;;;;;;2.60;1.67;;;;;;;5.60;91.58;100490.09;7396591;19;20011;-66
2024/01/22 08:10:13;;;;;;;2.08;1.55;;;;;;;5.59;88.19;100493.56;7396301;19;20427;-67
2024/01/22 08:12:42;;;;;;;3.38;1.17;;;;;;;5.61;91.16;100488.34;7395472;19;20018;-67
2024/01/22 08:15:14;;;;;;;2.05;1.60;;;;;;;5.60;91.54;100490.09;7395769;19;20023;-67
2024/01/22 08:17:45;;;;;;;3.30;1.63;;;;;;;5.60;89.85;100484.00;7395101;19;20025;-66
2024/01/22 08:20:20;;;;;;;1.92;1.20;;;;;;;5.59;88.73;100490.09;7396372;19;20017;-66
2024/01/22 08:22:49;;;;;;;2.88;1.77;;;;;;;5.59;90.45;100477.94;7394275;19;20015;-66
2024/01/22 08:25:27;;;;;;;2.65;1.50;;;;;;;5.59;93.04;100483.16;7395510;19;20007;-67
2024/01/22 08:27:55;;;;;;;2.35;1.70;;;;;;;5.55;92.07;100476.25;7395870;19;20017;-66
2024/01/22 08:30:24;;;;;;;2.88;1.77;;;;;;;5.52;93.64;100489.25;7394117;19;20088;-66
2024/01/22 08:32:55;;;;;;;3.95;1.70;;;;;;;5.47;94.10;100478.88;7395367;19;20007;-67
2024/01/22 08:35:24;;;;;;;2.05;1.40;;;;;;;5.42;94.72;100484.97;7396153;19;20071;-66
2024/01/22 08:37:54;;;;;;;3.05;1.80;;;;;;;5.37;96.60;100474.56;7394765;19;20074;-66
2024/01/22 08:40:24;;;;;;;3.70;1.45;;;;;;;5.32;96.04;100469.41;7395339;19;20453;-66
2024/01/22 08:42:53;;;;;;;4.68;1.40;;;;;;;5.28;96.83;100470.31;7394529;19;20087;-67
2024/01/22 08:45:22;;;;;;;2.47;1.80;;;;;;;5.24;97.95;100462.50;7395338;19;20066;-67
2024/01/22 08:47:55;;;;;;;2.60;1.40;;;;;;;5.20;98.89;100466.84;7393788;19;20011;-67
2024/01/22 08:50:24;;;;;;;2.67;1.55;;;;;;;5.14;98.43;100462.53;7395136;19;20070;-67
2024/01/22 08:52:54;;;;;;;6.68;2.90;;;;;;;5.13;99.09;100446.94;7394869;19;20386;-67
2024/01/22 08:55:23;;;;;;;3.30;1.77;;;;;;;5.08;99.45;100439.19;7394661;19;20006;-67
2024/01/22 08:57:53;;;;;;;4.05;1.67;;;;;;;5.10;98.75;100440.03;7393600;19;20018;-67
2024/01/22 09:00:22;;;;;;;2.28;1.50;;;;;;;5.11;99.67;100452.16;7395423;19;20359;-66
2024/01/22 09:02:50;;;;;;;2.88;1.48;;;;;;;5.13;99.73;100447.81;7394458;19;20367;-68
2024/01/22 09:05:21;;;;;;;3.30;1.70;;;;;;;5.15;98.32;100455.63;7395183;19;20026;-67
2024/01/22 09:07:50;;;;;;;3.33;1.48;;;;;;;5.16;100.00;100450.41;7395591;19;20082;-67
2024/01/22 09:10:19;;;;;;;2.65;1.70;;;;;;;5.26;100.00;100464.22;7394148;19;20013;-66
2024/01/22 09:12:48;;;;;;;3.22;1.58;;;;;;;5.37;99.87;100462.44;7394812;19;20014;-66
2024/01/22 09:15:18;;;;;;;3.15;1.83;;;;;;;5.52;96.41;100468.44;7393597;19;20032;-67
2024/01/22 09:17:47;;;;;;;4.75;3.05;;;;;;;5.60;97.67;100463.19;7394325;19;20361;-67
2024/01/22 09:20:15;;;;;;;2.40;1.23;;;;;;;5.63;98.14;100458.81;7395836;19;20078;-66
2024/01/22 09:22:48;;;;;;;2.35;1.60;;;;;;;5.67;97.42;100459.69;7393706;19;20074;-66
2024/01/22 09:25:19;;;;;;;3.45;1.48;;;;;;;5.71;98.03;100463.97;7396044;19;20014;-67
2024/01/22 09:27:47;;;;;;;3.85;1.60;;;;;;;5.76;98.03;100480.44;7394828;19;20670;-67
2024/01/22 09:30:16;;;;;;;2.67;1.33;;;;;;;5.80;99.85;100469.16;7394763;19;20014;-67
2024/01/22 09:32:44;;;;;;;1.95;1.67;;;;;;;5.84;99.88;100465.66;7393674;19;20537;-67
2024/01/22 09:35:14;;;;;;;2.75;1.17;;;;;;;5.87;99.13;100452.59;7391972;19;20010;-67
2024/01/22 09:37:42;;;;;;;1.92;1.45;;;;;;;5.90;98.81;100477.75;7393307;19;20002;-67
2024/01/22 09:40:14;;;;;;;3.53;1.42;;;;;;;5.94;97.97;100470.78;7392222;19;20007;-66
2024/01/22 09:42:44;;;;;;;1.90;1.70;;;;;;;5.99;98.45;100469.03;7392183;19;20089;-66
2024/01/22 09:45:13;;;;;;;1.60;1.10;;;;;;;6.03;99.68;100474.22;7394071;19;20365;-66
2024/01/22 09:47:42;;;;;;;1.90;1.23;;;;;;;6.06;98.76;100457.72;7394451;19;20380;-71
2024/01/22 09:50:12;;;;;;;4.57;1.58;;;;;;;6.17;100.00;100450.69;7398681;19;20014;-70
2024/01/22 09:52:46;;;;;;;2.90;1.40;;;;;;;6.26;98.31;100441.06;7393305;19;20037;-67
2024/01/22 09:55:18;;;;;;;1.90;1.42;;;;;;;6.33;97.32;100445.31;7391812;19;20350;-66
2024/01/22 09:57:49;;;;;;;3.15;1.88;;;;;;;6.36;97.42;100453.13;7393553;19;20027;-67
2024/01/22 10:00:21;;;;;;;1.92;1.52;;;;;;;6.38;96.71;100453.09;7393290;19;20027;-66
2024/01/22 10:02:49;;;;;;;2.25;1.70;;;;;;;6.42;98.99;100439.16;7393051;19;20006;-67
2024/01/22 10:05:18;;;;;;;2.65;1.60;;;;;;;6.43;98.51;100433.09;7393356;19;20070;-67
2024/01/22 10:07:47;;;;;;;3.00;1.60;;;;;;;6.46;97.83;100433.06;7394428;19;20028;-66
2024/01/22 10:10:20;;;;;;;2.67;1.42;;;;;;;6.47;95.72;100440.88;7391617;19;20030;-66
2024/01/22 10:13:03;;;;;;;1.40;1.30;;;;;;;6.53;93.61;100416.47;7395155;19;20481;-65
2024/01/22 10:15:32;;;;;;;2.65;1.50;;;;;;;6.62;92.94;100419.00;7400693;19;20023;-66
2024/01/22 10:18:12;;;;;;;1.67;1.00;;;;;;;6.71;89.92;100404.13;7398689;19;20010;-66
2024/01/22 10:20:41;;;;;;;2.40;1.33;;;;;;;6.78;91.93;100396.19;7400103;19;20027;-66
2024/01/22 10:23:09;;;;;;;3.22;1.33;;;;;;;6.87;88.90;100408.28;7397064;19;20364;-67
2024/01/22 10:25:42;;;;;;;2.88;1.60;;;;;;;6.95;88.75;100405.56;7400209;19;20435;-67
2024/01/22 10:28:12;;;;;;;2.05;1.27;;;;;;;6.98;87.87;100395.13;7400112;19;20007;-67
2024/01/22 10:30:42;;;;;;;2.65;1.40;;;;;;;7.06;89.52;100400.22;7400301;19;20006;-68
2024/01/22 10:33:15;;;;;;;2.35;1.40;;;;;;;7.11;88.62;100393.22;7399128;19;20021;-68
2024/01/22 10:35:51;;;;;;;2.83;1.20;;;;;;;7.16;90.83;100383.56;7399860;19;20015;-67
2024/01/22 10:38:21;;;;;;;1.33;0.90;;;;;;;7.20;91.78;100384.41;7398838;19;20019;-68
2024/01/22 10:40:52;;;;;;;1.77;1.17;;;;;;;7.23;89.77;100380.00;7400342;19;20015;-67
2024/01/22 10:43:29;;;;;;;2.42;1.40;;;;;;;7.27;89.48;100362.56;7400493;19;20104;-68
2024/01/22 10:45:58;;;;;;;3.20;1.30;;;;;;;7.31;91.51;100375.53;7403703;19;20352;-67
2024/01/22 10:48:28;;;;;;;2.65;1.15;;;;;;;7.37;93.68;100373.72;7399998;19;20374;-69
2024/01/22 10:50:57;;;;;;;1.63;1.10;;;;;;;7.42;94.09;100372.78;7399088;19;20011;-69
2024/01/22 10:53:27;;;;;;;3.08;1.25;;;;;;;7.47;89.65;100357.91;7398730;19;20018;-68
2024/01/22 10:56:07;;;;;;;1.52;1.27;;;;;;;7.54;86.80;100356.06;7399290;19;20017;-69
2024/01/22 10:58:43;;;;;;;2.03;0.98;;;;;;;7.58;87.52;100357.75;7400229;19;20381;-69
2024/01/22 11:01:17;;;;;;;2.58;1.20;;;;;;;7.61;92.39;100351.63;7399580;19;20378;-67
2024/01/22 11:03:50;;;;;;;1.88;1.50;;;;;;;7.60;89.76;100352.50;7397602;19;20014;-67
2024/01/22 11:06:22;;;;;;;1.77;1.25;;;;;;;7.61;85.86;100357.69;7398763;19;20083;-67
2024/01/22 11:08:52;;;;;;;1.88;1.13;;;;;;;7.61;86.00;100334.19;7400459;19;20019;-67
2024/01/22 11:11:26;;;;;;;2.53;1.38;;;;;;;7.61;87.87;100336.81;7398299;19;20074;-67
2024/01/22 11:13:58;;;;;;;3.92;1.17;;;;;;;7.66;88.50;100339.34;7398483;19;20069;-67
2024/01/22 11:16:27;;;;;;;2.17;1.15;;;;;;;7.69;88.99;100339.28;7400939;19;20037;-67
2024/01/22 11:19:00;;;;;;;2.95;1.00;;;;;;;7.72;89.87;100314.88;7400980;19;20027;-68
2024/01/22 11:21:35;;;;;;;3.13;1.13;;;;;;;7.74;88.65;100310.50;7402512;19;20024;-68
2024/01/22 11:24:16;;;;;;;2.33;1.20;;;;;;;7.76;86.02;100320.03;7398384;19;20021;-67
2024/01/22 11:27:03;;;;;;;1.35;1.08;;;;;;;7.77;85.44;100294.75;7399471;19;20481;-67
2024/01/22 11:29:32;;;;;;;3.05;0.90;;;;;;;7.81;90.83;100304.28;7402843;19;20010;-68
2024/01/22 11:32:29;;;;;;;2.03;1.02;;;;;;;7.84;85.52;100285.94;7401757;19;20015;-67
2024/01/22 11:35:03;;;;;;;2.53;1.10;;;;;;;7.86;87.26;100278.94;7399211;19;20011;-67
2024/01/22 11:37:40;;;;;;;3.08;1.05;;;;;;;7.88;84.38;100287.59;7400888;19;20014;-67
2024/01/22 11:40:11;;;;;;;1.58;1.10;;;;;;;7.91;88.49;100276.22;7401425;19;20486;-67
2024/01/22 11:42:42;;;;;;;1.88;1.35;;;;;;;7.94;89.31;100287.50;7399384;19;20027;-68
2024/01/22 11:45:15;;;;;;;2.00;1.20;;;;;;;7.94;84.93;100295.31;7398428;19;20006;-66